createdAt,value
2022-08-31T00:01:10.740Z,78.46
2022-08-31T00:03:56.731Z,78.59
2022-08-31T00:06:42.225Z,79.16
2022-08-31T00:09:27.662Z,79.18
2022-08-31T00:12:12.568Z,78.83
2022-08-31T00:14:57.463Z,79.32
2022-08-31T00:17:42.878Z,79.16
2022-08-31T00:20:33.333Z,79.67
2022-08-31T00:23:19.743Z,79.99
2022-08-31T00:26:05.355Z,80.15
2022-08-31T00:28:50.668Z,80.17
2022-08-31T00:31:35.845Z,80.23
2022-08-31T00:34:21.084Z,80.66
2022-08-31T00:37:06.537Z,81.02
2022-08-31T00:39:51.833Z,81.63
2022-08-31T00:42:37.054Z,81.68
2022-08-31T00:45:23.644Z,82.21
2022-08-31T00:48:09.388Z,82.08
2022-08-31T00:50:55.183Z,81.92
2022-08-31T00:53:41.202Z,81.76
2022-08-31T00:56:26.990Z,81.80
2022-08-31T00:59:16.233Z,81.44
2022-08-31T01:02:02.039Z,81.35
2022-08-31T01:04:46.979Z,81.05
2022-08-31T01:07:32.491Z,81.10
2022-08-31T01:10:20.939Z,80.77
2022-08-31T01:13:07.134Z,80.80
2022-08-31T01:15:59.014Z,80.06
2022-08-31T01:18:45.679Z,80.11
2022-08-31T01:21:48.599Z,79.83
2022-08-31T01:24:34.233Z,79.00
2022-08-31T01:27:23.613Z,78.84
2022-08-31T01:30:12.269Z,78.88
2022-08-31T01:32:57.655Z,79.14
2022-08-31T01:35:45.364Z,78.38
2022-08-31T01:38:31.661Z,78.51
2022-08-31T01:41:16.769Z,78.74
2022-08-31T01:44:02.191Z,78.18
2022-08-31T01:46:47.945Z,77.80
2022-08-31T01:49:33.255Z,77.82
2022-08-31T01:52:18.605Z,78.13
2022-08-31T01:55:05.500Z,78.01
2022-08-31T01:57:50.581Z,78.00
2022-08-31T02:00:36.018Z,78.08
2022-08-31T02:03:21.242Z,78.05
2022-08-31T02:06:13.531Z,78.30
2022-08-31T02:08:59.082Z,78.09
2022-08-31T02:11:44.349Z,78.10
2022-08-31T02:14:29.415Z,77.86
2022-08-31T02:17:14.298Z,77.75
2022-08-31T02:19:59.178Z,77.44
2022-08-31T02:22:44.225Z,77.38
2022-08-31T02:25:30.067Z,77.84
2022-08-31T02:28:15.269Z,78.14
2022-08-31T02:31:00.597Z,78.16
2022-08-31T02:33:45.908Z,78.01
2022-08-31T02:36:31.213Z,78.30
2022-08-31T02:39:18.457Z,78.49
2022-08-31T02:42:03.988Z,78.63
2022-08-31T02:44:49.129Z,78.63
2022-08-31T02:47:34.176Z,78.97
2022-08-31T02:50:19.790Z,78.49
2022-08-31T02:53:05.065Z,78.79
2022-08-31T02:55:50.588Z,78.97
2022-08-31T02:58:36.676Z,78.69
2022-08-31T03:01:24.240Z,78.92
2022-08-31T03:04:09.312Z,79.04
2022-08-31T03:06:54.646Z,79.15
2022-08-31T03:09:39.828Z,79.38
2022-08-31T03:12:28.674Z,79.17
2022-08-31T03:15:15.764Z,79.53
2022-08-31T03:18:00.841Z,79.50
2022-08-31T03:20:51.987Z,79.46
2022-08-31T03:23:37.480Z,79.64
2022-08-31T03:26:22.787Z,79.86
2022-08-31T03:29:08.020Z,80.04
2022-08-31T03:31:53.015Z,80.81
2022-08-31T03:34:38.464Z,80.85
2022-08-31T03:37:24.043Z,80.85
2022-08-31T03:40:10.111Z,80.42
2022-08-31T03:42:55.441Z,80.73
2022-08-31T03:45:42.379Z,80.66
2022-08-31T03:48:27.567Z,80.78
2022-08-31T03:51:12.357Z,80.54
2022-08-31T03:53:57.742Z,80.96
2022-08-31T03:56:43.076Z,80.82
2022-08-31T03:59:28.067Z,80.91
2022-08-31T04:02:13.373Z,80.75
2022-08-31T04:04:58.692Z,80.59
2022-08-31T04:07:44.407Z,80.80
2022-08-31T04:10:29.566Z,81.08
2022-08-31T04:13:15.063Z,81.46
2022-08-31T04:16:00.107Z,81.69
2022-08-31T04:18:46.479Z,81.07
2022-08-31T04:21:31.785Z,81.29
2022-08-31T04:24:16.754Z,80.82
2022-08-31T04:27:01.749Z,80.31
2022-08-31T04:29:47.156Z,80.91
2022-08-31T04:32:32.143Z,80.79
2022-08-31T04:35:17.520Z,81.01
2022-08-31T04:38:02.551Z,81.56
2022-08-31T04:40:48.140Z,81.46
2022-08-31T04:43:39.834Z,80.99
2022-08-31T04:46:25.920Z,81.05
2022-08-31T04:49:11.595Z,81.26
2022-08-31T04:51:57.041Z,81.20
2022-08-31T04:54:41.993Z,81.95
2022-08-31T04:57:27.165Z,81.20
2022-08-31T05:00:12.200Z,81.23
2022-08-31T05:03:01.316Z,81.22
2022-08-31T05:05:46.835Z,81.05
2022-08-31T05:08:31.673Z,81.00
2022-08-31T05:11:22.966Z,80.65
2022-08-31T05:14:10.185Z,80.60
2022-08-31T05:16:55.498Z,81.18
2022-08-31T05:19:41.381Z,80.85
2022-08-31T05:22:28.739Z,80.57
2022-08-31T05:25:13.932Z,80.29
2022-08-31T05:27:59.541Z,80.67
2022-08-31T05:30:44.952Z,80.36
2022-08-31T05:33:30.198Z,80.71
2022-08-31T05:36:15.588Z,80.50
2022-08-31T05:39:01.511Z,80.49
2022-08-31T05:41:47.995Z,79.97
2022-08-31T05:44:36.485Z,80.20
2022-08-31T05:47:21.624Z,80.13
2022-08-31T05:50:08.417Z,80.02
2022-08-31T05:52:53.638Z,80.07
2022-08-31T05:55:39.462Z,79.98
2022-08-31T05:58:24.661Z,79.81
2022-08-31T06:01:22.960Z,79.80
2022-08-31T06:04:09.133Z,79.88
2022-08-31T06:06:54.416Z,79.93
2022-08-31T06:09:39.577Z,79.43
2022-08-31T06:12:27.335Z,78.97
2022-08-31T06:15:12.478Z,79.25
2022-08-31T06:17:57.747Z,79.43
2022-08-31T06:20:42.978Z,78.98
2022-08-31T06:23:28.389Z,78.85
2022-08-31T06:26:15.486Z,79.70
2022-08-31T06:29:03.624Z,79.52
2022-08-31T06:31:49.166Z,80.00
2022-08-31T06:34:35.376Z,80.15
2022-08-31T06:37:20.621Z,79.87
2022-08-31T06:40:06.541Z,80.56
2022-08-31T06:42:52.750Z,80.51
2022-08-31T06:45:37.993Z,80.80
2022-08-31T06:48:23.094Z,80.74
2022-08-31T06:51:09.352Z,80.29
2022-08-31T06:53:54.653Z,80.55
2022-08-31T06:56:40.134Z,80.96
2022-08-31T06:59:28.808Z,80.72
2022-08-31T07:02:14.940Z,80.75
2022-08-31T07:05:00.489Z,80.42
2022-08-31T07:07:45.499Z,80.10
2022-08-31T07:10:34.323Z,80.12
2022-08-31T07:13:19.585Z,80.34
2022-08-31T07:16:15.475Z,80.24
2022-08-31T07:19:02.556Z,80.32
2022-08-31T07:21:50.346Z,80.19
2022-08-31T07:24:36.145Z,80.86
2022-08-31T07:27:21.107Z,80.73
2022-08-31T07:30:06.674Z,80.66
2022-08-31T07:32:52.082Z,80.35
2022-08-31T07:35:41.412Z,80.12
2022-08-31T07:38:26.433Z,80.27
2022-08-31T07:41:11.510Z,79.50
2022-08-31T07:43:56.596Z,79.99
2022-08-31T07:46:42.207Z,79.73
2022-08-31T07:49:27.914Z,78.16
2022-08-31T07:52:14.529Z,77.27
2022-08-31T07:55:04.617Z,75.90
2022-08-31T07:57:49.870Z,74.67
2022-08-31T08:00:34.935Z,73.61
2022-08-31T08:03:20.372Z,74.29
2022-08-31T08:06:05.794Z,73.13
2022-08-31T08:09:21.419Z,71.49
2022-08-31T08:12:01.262Z,71.37
2022-08-31T08:14:46.476Z,70.45
2022-08-31T08:17:31.434Z,69.63
2022-08-31T08:20:16.862Z,71.71
2022-08-31T08:23:15.955Z,72.01
2022-08-31T08:26:08.443Z,72.19
2022-08-31T08:28:55.089Z,72.08
2022-08-31T08:31:40.163Z,72.80
2022-08-31T08:34:32.604Z,72.99
2022-08-31T08:37:24.034Z,72.68
2022-08-31T08:40:34.879Z,72.88
2022-08-31T08:43:30.664Z,72.67
2022-08-31T08:46:33.849Z,72.26
2022-08-31T08:49:22.994Z,71.91
2022-08-31T08:52:22.478Z,72.92
2022-08-31T08:55:20.304Z,71.52
2022-08-31T08:58:08.613Z,72.36
2022-08-31T09:00:54.983Z,72.66
2022-08-31T09:03:58.018Z,72.45
2022-08-31T09:06:54.456Z,71.35
2022-08-31T09:09:48.985Z,70.70
2022-08-31T09:12:43.389Z,70.98
2022-08-31T09:15:28.837Z,70.47
2022-08-31T09:18:35.139Z,70.65
2022-08-31T09:21:30.895Z,70.45
2022-08-31T09:24:19.619Z,69.55
2022-08-31T09:27:08.813Z,69.22
2022-08-31T09:29:57.611Z,70.27
2022-08-31T09:32:54.125Z,70.09
2022-08-31T09:35:39.156Z,68.82
2022-08-31T09:38:34.078Z,68.87
2022-08-31T09:41:21.417Z,67.85
2022-08-31T09:44:34.146Z,68.53
2022-08-31T09:47:49.679Z,67.34
2022-08-31T09:50:42.333Z,67.17
2022-08-31T09:53:27.838Z,66.62
2022-08-31T09:56:22.255Z,65.70
2022-08-31T09:59:09.941Z,63.94
2022-08-31T10:01:54.947Z,64.00
2022-08-31T10:04:58.203Z,62.20
2022-08-31T10:07:54.434Z,62.55
2022-08-31T10:10:41.528Z,62.54
2022-08-31T10:13:36.036Z,62.10
2022-08-31T10:16:37.090Z,61.16
2022-08-31T10:19:26.611Z,60.10
2022-08-31T10:22:19.670Z,60.72
2022-08-31T10:25:16.325Z,62.08
2022-08-31T10:28:10.270Z,61.58
2022-08-31T10:31:02.331Z,61.46
2022-08-31T10:33:52.595Z,61.54
2022-08-31T10:36:39.989Z,61.52
2022-08-31T10:39:33.211Z,60.88
2022-08-31T10:42:27.084Z,60.74
2022-08-31T10:45:18.983Z,61.94
2022-08-31T10:48:04.804Z,60.94
2022-08-31T10:50:59.465Z,59.39
2022-08-31T10:54:03.899Z,60.16
2022-08-31T10:57:07.979Z,60.91
2022-08-31T11:00:06.722Z,60.37
2022-08-31T11:03:04.417Z,60.73
2022-08-31T11:05:59.011Z,59.94
2022-08-31T11:09:09.286Z,60.26
2022-08-31T11:12:10.333Z,61.03
2022-08-31T11:15:07.680Z,60.51
2022-08-31T11:18:01.722Z,60.70
2022-08-31T11:20:52.797Z,60.37
2022-08-31T11:24:14.292Z,59.94
2022-08-31T11:27:11.689Z,60.65
2022-08-31T11:30:05.724Z,61.87
2022-08-31T11:33:00.331Z,61.72
2022-08-31T11:35:48.598Z,60.63
2022-08-31T11:38:40.677Z,58.50
2022-08-31T11:41:45.808Z,58.79
2022-08-31T11:44:37.256Z,59.44
2022-08-31T11:47:28.751Z,59.02
2022-08-31T11:50:23.437Z,57.95
2022-08-31T11:53:37.066Z,58.02
2022-08-31T11:56:40.104Z,57.11
2022-08-31T11:59:28.259Z,55.53
2022-08-31T12:02:19.850Z,54.97
2022-08-31T12:05:06.246Z,54.51
2022-08-31T12:07:51.849Z,55.97
2022-08-31T12:11:05.839Z,54.11
2022-08-31T12:14:02.803Z,55.41
2022-08-31T12:17:00.357Z,56.13
2022-08-31T12:20:09.285Z,56.22
2022-08-31T12:23:00.592Z,55.94
2022-08-31T12:26:03.078Z,55.72
2022-08-31T12:29:09.979Z,55.97
2022-08-31T12:32:18.005Z,53.79
2022-08-31T12:35:16.360Z,53.23
2022-08-31T12:38:04.263Z,55.56
2022-08-31T12:40:54.974Z,52.49
2022-08-31T12:43:48.709Z,51.52
2022-08-31T12:46:40.541Z,50.55
2022-08-31T12:49:56.444Z,50.91
2022-08-31T12:52:53.897Z,52.29
2022-08-31T12:55:48.039Z,53.49
2022-08-31T12:59:01.744Z,53.96
2022-08-31T13:01:50.638Z,52.84
2022-08-31T13:04:35.981Z,54.24
2022-08-31T13:07:28.854Z,54.23
2022-08-31T13:10:21.794Z,54.49
2022-08-31T13:13:19.941Z,54.65
2022-08-31T13:16:05.451Z,53.57
2022-08-31T13:19:00.157Z,54.96
2022-08-31T13:21:54.037Z,54.40
2022-08-31T13:24:42.462Z,54.14
2022-08-31T13:27:36.556Z,53.91
2022-08-31T13:30:22.983Z,53.60
2022-08-31T13:33:20.315Z,53.80
2022-08-31T13:36:20.496Z,53.07
2022-08-31T13:39:26.088Z,52.75
2022-08-31T13:42:32.518Z,53.36
2022-08-31T13:45:28.424Z,53.74
2022-08-31T13:48:20.333Z,53.21
2022-08-31T13:51:08.643Z,52.80
2022-08-31T13:53:53.622Z,52.95
2022-08-31T13:56:42.426Z,53.67
2022-08-31T13:59:32.024Z,52.60
2022-08-31T14:02:17.375Z,53.01
2022-08-31T14:05:05.046Z,52.74
2022-08-31T14:07:54.701Z,52.54
2022-08-31T14:10:44.774Z,51.75
2022-08-31T14:13:29.973Z,51.55
2022-08-31T14:16:26.896Z,51.72
2022-08-31T14:19:32.864Z,51.17
2022-08-31T14:22:33.050Z,50.86
2022-08-31T14:25:18.277Z,49.64
2022-08-31T14:28:03.759Z,50.47
2022-08-31T14:30:48.661Z,51.20
2022-08-31T14:33:33.780Z,50.49
2022-08-31T14:36:19.299Z,51.29
2022-08-31T14:39:05.071Z,51.76
2022-08-31T14:41:55.388Z,52.14
2022-08-31T14:44:43.189Z,52.34
2022-08-31T14:47:32.504Z,51.57
2022-08-31T14:50:21.720Z,51.80
2022-08-31T14:53:06.751Z,52.32
2022-08-31T14:55:51.761Z,51.11
2022-08-31T14:58:37.140Z,51.39
2022-08-31T15:01:22.580Z,50.91
2022-08-31T15:04:07.532Z,50.65
2022-08-31T15:06:54.929Z,50.44
2022-08-31T15:09:40.046Z,50.95
2022-08-31T15:12:25.104Z,50.72
2022-08-31T15:15:11.017Z,50.94
2022-08-31T15:17:56.129Z,50.92
2022-08-31T15:20:41.673Z,50.68
2022-08-31T15:23:27.118Z,51.49
2022-08-31T15:26:12.866Z,51.40
2022-08-31T15:28:58.138Z,51.26
2022-08-31T15:31:47.931Z,50.69
2022-08-31T15:34:33.303Z,50.42
2022-08-31T15:37:19.186Z,50.57
2022-08-31T15:40:05.302Z,49.61
2022-08-31T15:42:52.566Z,50.63
2022-08-31T15:45:38.062Z,50.36
2022-08-31T15:48:23.340Z,49.77
2022-08-31T15:51:19.241Z,50.33
2022-08-31T15:54:21.120Z,50.80
2022-08-31T15:57:08.352Z,50.12
2022-08-31T15:59:53.568Z,49.14
2022-08-31T16:02:38.854Z,48.96
2022-08-31T16:05:29.450Z,49.56
2022-08-31T16:08:14.788Z,48.66
2022-08-31T16:11:00.080Z,48.22
2022-08-31T16:13:45.070Z,47.95
2022-08-31T16:16:34.643Z,48.94
2022-08-31T16:19:34.551Z,49.15
2022-08-31T16:22:20.693Z,48.98
2022-08-31T16:25:07.148Z,48.63
2022-08-31T16:27:52.452Z,47.61
2022-08-31T16:30:37.537Z,47.29
2022-08-31T16:33:22.454Z,47.42
2022-08-31T16:36:14.897Z,47.45
2022-08-31T16:39:00.656Z,47.76
2022-08-31T16:41:46.891Z,47.84
2022-08-31T16:44:36.842Z,46.91
2022-08-31T16:47:22.618Z,46.74
2022-08-31T16:50:09.163Z,45.45
2022-08-31T16:52:54.266Z,45.18
2022-08-31T16:55:40.663Z,45.92
2022-08-31T16:58:50.048Z,46.33
2022-08-31T17:01:33.820Z,45.61
2022-08-31T17:04:41.082Z,45.03
2022-08-31T17:07:26.358Z,45.59
2022-08-31T17:10:11.852Z,45.67
2022-08-31T17:12:57.121Z,45.94
2022-08-31T17:15:42.095Z,46.24
2022-08-31T17:18:29.427Z,46.11
2022-08-31T17:21:14.455Z,46.05
2022-08-31T17:24:02.354Z,46.29
2022-08-31T17:26:49.258Z,46.53
2022-08-31T17:29:43.497Z,46.69
2022-08-31T17:32:29.289Z,45.81
2022-08-31T17:35:15.492Z,46.49
2022-08-31T17:38:00.572Z,46.18
2022-08-31T17:40:45.711Z,45.72
2022-08-31T17:43:31.544Z,46.17
2022-08-31T17:46:16.554Z,45.43
2022-08-31T17:49:02.544Z,45.97
2022-08-31T17:51:52.134Z,45.88
2022-08-31T17:54:39.823Z,46.03
2022-08-31T17:57:25.455Z,45.92
2022-08-31T18:00:14.198Z,46.29
2022-08-31T18:02:59.354Z,46.17
2022-08-31T18:05:45.336Z,46.35
2022-08-31T18:08:30.494Z,46.16
2022-08-31T18:11:15.911Z,46.84
2022-08-31T18:14:01.443Z,47.11
2022-08-31T18:16:47.796Z,47.05
2022-08-31T18:19:33.394Z,46.82
2022-08-31T18:22:18.567Z,47.17
2022-08-31T18:25:04.264Z,47.63
2022-08-31T18:27:49.332Z,47.54
2022-08-31T18:30:38.382Z,47.58
2022-08-31T18:33:23.549Z,48.33
2022-08-31T18:36:10.793Z,48.10
2022-08-31T18:38:58.854Z,49.08
2022-08-31T18:41:44.266Z,48.73
2022-08-31T18:44:29.332Z,48.36
2022-08-31T18:47:15.592Z,47.82
2022-08-31T18:50:00.432Z,48.17
2022-08-31T18:52:48.437Z,49.11
2022-08-31T18:55:33.350Z,49.38
2022-08-31T18:58:18.890Z,49.23
2022-08-31T19:01:04.951Z,48.83
2022-08-31T19:03:50.206Z,49.06
2022-08-31T19:06:36.409Z,49.69
2022-08-31T19:09:21.330Z,49.98
2022-08-31T19:12:06.651Z,50.33
2022-08-31T19:14:51.989Z,50.45
2022-08-31T19:17:37.358Z,50.17
2022-08-31T19:20:22.981Z,50.32
2022-08-31T19:23:08.535Z,50.88
2022-08-31T19:25:53.966Z,51.01
2022-08-31T19:28:38.938Z,50.69
2022-08-31T19:31:27.088Z,51.43
2022-08-31T19:34:16.104Z,51.12
2022-08-31T19:37:01.854Z,51.54
2022-08-31T19:39:47.280Z,53.16
2022-08-31T19:45:42.906Z,53.05
2022-08-31T19:48:28.932Z,52.19
2022-08-31T19:51:17.329Z,54.02
2022-08-31T19:54:02.507Z,54.31
2022-08-31T19:56:47.786Z,54.28
2022-08-31T19:59:33.447Z,54.56
2022-08-31T20:02:19.013Z,55.45
2022-08-31T20:05:04.829Z,55.07
2022-08-31T20:07:49.732Z,53.34
2022-08-31T20:10:44.002Z,52.57
2022-08-31T20:13:29.267Z,54.49
2022-08-31T20:16:14.905Z,54.19
2022-08-31T20:19:01.031Z,52.87
2022-08-31T20:21:48.157Z,54.26
2022-08-31T20:24:37.672Z,53.48
2022-08-31T20:27:22.646Z,53.18
2022-08-31T20:30:08.935Z,53.29
2022-08-31T20:32:54.469Z,53.68
2022-08-31T20:35:40.765Z,53.49
2022-08-31T20:38:25.674Z,53.74
2022-08-31T20:41:10.496Z,55.24
2022-08-31T20:44:01.955Z,54.46
2022-08-31T20:46:50.724Z,55.00
2022-08-31T20:49:38.840Z,54.94
2022-08-31T20:52:27.857Z,54.07
2022-08-31T20:55:13.289Z,54.08
2022-08-31T20:57:58.454Z,54.99
2022-08-31T21:00:43.809Z,54.64
2022-08-31T21:03:29.137Z,54.90
2022-08-31T21:06:14.408Z,55.05
2022-08-31T21:08:59.462Z,54.88
2022-08-31T21:11:44.296Z,55.44
2022-08-31T21:14:29.326Z,55.64
2022-08-31T21:17:14.779Z,56.15
2022-08-31T21:20:00.152Z,54.99
2022-08-31T21:22:45.509Z,55.06
2022-08-31T21:25:30.449Z,55.68
2022-08-31T21:28:17.025Z,55.13
2022-08-31T21:31:12.960Z,55.17
2022-08-31T21:34:04.013Z,55.54
2022-08-31T21:36:49.708Z,55.55
2022-08-31T21:39:35.043Z,55.51
2022-08-31T21:42:19.953Z,55.55
2022-08-31T21:45:05.939Z,55.18
2022-08-31T21:47:51.614Z,55.56
2022-08-31T21:50:36.692Z,55.97
2022-08-31T21:53:23.092Z,55.96
2022-08-31T21:56:09.229Z,55.75
2022-08-31T21:58:56.323Z,56.12
2022-08-31T22:01:43.158Z,56.31
2022-08-31T22:04:30.709Z,56.10
2022-08-31T22:07:16.201Z,55.92
2022-08-31T22:10:01.419Z,55.83
2022-08-31T22:12:46.944Z,56.49
2022-08-31T22:15:31.915Z,57.22
2022-08-31T22:18:59.138Z,56.57
2022-08-31T22:21:26.483Z,57.12
2022-08-31T22:24:26.956Z,56.81
2022-08-31T22:27:13.252Z,57.27
2022-08-31T22:29:58.470Z,57.45
2022-08-31T22:32:43.741Z,57.90
2022-08-31T22:35:28.797Z,57.69
2022-08-31T22:38:13.995Z,58.67
2022-08-31T22:41:06.050Z,58.32
2022-08-31T22:43:51.591Z,59.00
2022-08-31T22:46:37.739Z,59.14
2022-08-31T22:49:23.550Z,58.96
2022-08-31T22:52:08.846Z,59.41
2022-08-31T22:54:54.175Z,59.68
2022-08-31T22:57:39.439Z,59.72
2022-08-31T23:00:24.547Z,59.93
2022-08-31T23:03:09.569Z,60.52
2022-08-31T23:05:54.569Z,60.48
2022-08-31T23:08:39.780Z,61.22
2022-08-31T23:11:26.067Z,61.60
2022-08-31T23:14:11.087Z,61.10
2022-08-31T23:16:58.606Z,60.79
2022-08-31T23:19:43.753Z,60.90
2022-08-31T23:22:28.805Z,60.75
2022-08-31T23:25:14.993Z,61.88
2022-08-31T23:28:00.223Z,61.32
2022-08-31T23:30:45.601Z,61.26
2022-08-31T23:33:31.010Z,61.13
2022-08-31T23:36:18.027Z,61.87
2022-08-31T23:39:04.499Z,61.72
2022-08-31T23:41:50.047Z,61.97
2022-08-31T23:44:35.333Z,61.84
2022-08-31T23:47:23.217Z,62.28
2022-08-31T23:50:08.757Z,62.32
2022-08-31T23:52:53.724Z,63.05
2022-08-31T23:55:42.935Z,62.33
2022-08-31T23:58:28.116Z,62.51
